createdAt,value
2018-05-07T19:48:02.612Z,1013.70
2018-05-07T19:49:03.985Z,1013.70
2018-05-07T19:50:05.369Z,1013.75
2018-05-07T19:51:06.751Z,1013.69
2018-05-07T19:52:08.095Z,1013.69
2018-05-07T19:53:09.488Z,1013.72
2018-05-07T19:54:10.820Z,1013.73
2018-05-07T19:55:12.220Z,1013.75
2018-05-07T19:56:13.596Z,1013.75
2018-05-07T19:57:15.008Z,1013.76
2018-05-07T19:58:16.397Z,1013.80
2018-05-07T19:59:17.780Z,1013.77
2018-05-07T20:00:19.137Z,1013.78
2018-05-07T20:01:20.522Z,1013.77
2018-05-07T20:02:21.929Z,1013.75
2018-05-07T20:03:23.369Z,1013.75
2018-05-07T20:04:24.758Z,1013.76
2018-05-07T20:05:26.158Z,1013.82
2018-05-07T20:06:27.657Z,1013.79
2018-05-07T20:07:29.045Z,1013.77
2018-05-07T20:08:30.385Z,1013.78
2018-05-07T20:09:31.779Z,1013.80
2018-05-07T20:10:33.186Z,1013.77
2018-05-07T20:11:34.582Z,1013.77
2018-05-07T20:12:35.995Z,1013.80
2018-05-07T20:13:37.361Z,1013.74
2018-05-07T20:14:38.752Z,1013.75
2018-05-07T20:15:40.147Z,1013.75
2018-05-07T20:16:41.542Z,1013.73
2018-05-07T20:17:42.929Z,1013.72
2018-05-07T20:18:44.312Z,1013.69
2018-05-07T20:19:45.700Z,1013.72
2018-05-07T20:20:47.091Z,1013.72
2018-05-07T20:21:48.495Z,1013.73
2018-05-07T20:22:49.883Z,1013.68
2018-05-07T20:23:51.300Z,1013.65
2018-05-07T20:24:52.685Z,1013.66
2018-05-07T20:25:54.069Z,1013.67
2018-05-07T20:26:55.459Z,1013.70
2018-05-07T20:27:56.841Z,1013.70
2018-05-07T20:28:58.243Z,1013.67
2018-05-07T20:29:59.645Z,1013.69
2018-05-07T20:31:01.026Z,1013.70
2018-05-07T20:32:02.413Z,1013.69
2018-05-07T20:33:03.815Z,1013.66
2018-05-07T20:34:05.198Z,1013.66
2018-05-07T20:35:06.589Z,1013.67
2018-05-07T20:36:07.973Z,1013.69
2018-05-07T20:37:09.377Z,1013.61
2018-05-07T20:38:10.763Z,1013.67
2018-05-07T20:39:12.171Z,1013.70
2018-05-07T20:40:13.534Z,1013.68
2018-05-07T20:41:14.940Z,1013.71
2018-05-07T20:42:16.438Z,1013.69
2018-05-07T20:43:17.821Z,1013.68
2018-05-07T20:44:19.220Z,1013.65
2018-05-07T20:45:20.588Z,1013.63
2018-05-07T20:46:22.001Z,1013.63
2018-05-07T20:47:23.382Z,1013.62
2018-05-07T20:48:24.798Z,1013.64
2018-05-07T20:49:26.208Z,1013.59
2018-05-07T20:50:27.598Z,1013.60
2018-05-07T20:51:29.000Z,1013.60
2018-05-07T20:52:30.378Z,1013.64
2018-05-07T20:53:31.720Z,1013.63
2018-05-07T20:54:33.114Z,1013.63
2018-05-07T20:55:34.494Z,1013.60
2018-05-07T20:56:35.909Z,1013.60
2018-05-07T20:57:37.315Z,1013.62
2018-05-07T20:58:38.707Z,1013.61
2018-05-07T20:59:40.092Z,1013.57
2018-05-07T21:00:41.482Z,1013.59
2018-05-07T21:01:42.869Z,1013.59
2018-05-07T21:02:44.267Z,1013.58
2018-05-07T21:03:45.664Z,1013.57
2018-05-07T21:04:47.042Z,1013.56
2018-05-07T21:05:48.432Z,1013.55
2018-05-07T21:06:49.824Z,1013.53
2018-05-07T21:07:51.206Z,1013.54
2018-05-07T21:08:52.592Z,1013.55
2018-05-07T21:09:53.978Z,1013.52
2018-05-07T21:10:55.381Z,1013.54
2018-05-07T21:11:56.775Z,1013.52
2018-05-07T21:12:58.161Z,1013.51
2018-05-07T21:13:59.560Z,1013.47
2018-05-07T21:15:00.949Z,1013.48
2018-05-07T21:16:02.335Z,1013.47
2018-05-07T21:17:03.718Z,1013.47
2018-05-07T21:18:05.107Z,1013.47
2018-05-07T21:19:06.496Z,1013.48
2018-05-07T21:20:07.895Z,1013.48
2018-05-07T21:21:09.283Z,1013.47
2018-05-07T21:22:10.674Z,1013.44
2018-05-07T21:23:12.058Z,1013.45
2018-05-07T21:24:13.447Z,1013.45
2018-05-07T21:25:14.829Z,1013.45
2018-05-07T21:26:16.217Z,1013.45
2018-05-07T21:27:17.600Z,1013.47
2018-05-07T21:28:18.983Z,1013.48
2018-05-07T21:29:20.364Z,1013.44
2018-05-07T21:30:21.749Z,1013.43
2018-05-07T21:31:23.137Z,1013.46
2018-05-07T21:32:24.528Z,1013.48
2018-05-07T21:33:25.923Z,1013.44
2018-05-07T21:34:27.304Z,1013.44
2018-05-07T21:35:28.691Z,1013.45
2018-05-07T21:36:30.081Z,1013.46
2018-05-07T21:37:31.474Z,1013.40
2018-05-07T21:38:32.867Z,1013.45
2018-05-07T21:39:34.256Z,1013.44
2018-05-07T21:40:35.643Z,1013.44
2018-05-07T21:41:37.034Z,1013.42
2018-05-07T21:42:38.425Z,1013.44
2018-05-07T21:43:39.821Z,1013.45
2018-05-07T21:44:41.201Z,1013.44
2018-05-07T21:45:42.597Z,1013.44
2018-05-07T21:46:43.962Z,1013.42
2018-05-07T21:47:45.354Z,1013.43
2018-05-07T21:48:46.736Z,1013.44
2018-05-07T21:49:48.118Z,1013.47
2018-05-07T21:50:49.519Z,1013.42
2018-05-07T21:51:50.906Z,1013.41
2018-05-07T21:52:52.305Z,1013.43
2018-05-07T21:53:53.692Z,1013.44
2018-05-07T21:54:55.066Z,1013.41
2018-05-07T21:55:56.466Z,1013.43
2018-05-07T21:56:57.855Z,1013.43
2018-05-07T21:57:59.242Z,1013.41
2018-05-07T21:59:00.636Z,1013.43
2018-05-07T22:00:02.027Z,1013.43
2018-05-07T22:01:03.414Z,1013.39
2018-05-07T22:02:04.801Z,1013.36
2018-05-07T22:03:06.198Z,1013.41
2018-05-07T22:04:07.591Z,1013.36
2018-05-07T22:05:08.965Z,1013.37
2018-05-07T22:06:10.345Z,1013.41
2018-05-07T22:07:11.735Z,1013.42
2018-05-07T22:08:13.119Z,1013.35
2018-05-07T22:09:14.507Z,1013.38
2018-05-07T22:10:15.898Z,1013.40
2018-05-07T22:11:17.279Z,1013.41
2018-05-07T22:12:18.723Z,1013.39
2018-05-07T22:13:20.056Z,1013.37
2018-05-07T22:14:21.450Z,1013.37
2018-05-07T22:15:22.824Z,1013.38
2018-05-07T22:16:24.216Z,1013.38
2018-05-07T22:17:25.599Z,1013.37
2018-05-07T22:18:26.984Z,1013.38
2018-05-07T22:19:28.370Z,1013.38
2018-05-07T22:20:29.756Z,1013.37
2018-05-07T22:21:31.142Z,1013.37
2018-05-07T22:22:32.524Z,1013.38
2018-05-07T22:23:33.918Z,1013.37
2018-05-07T22:24:35.292Z,1013.37
2018-05-07T22:25:36.680Z,1013.35
2018-05-07T22:26:38.076Z,1013.38
2018-05-07T22:27:39.455Z,1013.37
2018-05-07T22:28:40.856Z,1013.40
2018-05-07T22:29:42.226Z,1013.36
2018-05-07T22:30:44.440Z,1013.38
2018-05-07T22:31:45.825Z,1013.40
2018-05-07T22:32:47.203Z,1013.38
2018-05-07T22:33:48.592Z,1013.37
2018-05-07T22:34:49.979Z,1013.39
2018-05-07T22:35:51.357Z,1013.38
2018-05-07T22:36:53.371Z,1013.41
2018-05-07T22:37:54.758Z,1013.45
2018-05-07T22:38:56.145Z,1013.44
2018-05-07T22:39:57.534Z,1013.38
2018-05-07T22:40:58.896Z,1013.37
2018-05-07T22:42:00.251Z,1013.39
2018-05-07T22:43:01.640Z,1013.34
2018-05-07T22:44:03.033Z,1013.31
2018-05-07T22:45:04.421Z,1013.30
2018-05-07T22:46:05.822Z,1013.34
2018-05-07T22:47:07.196Z,1013.34
2018-05-07T22:48:08.573Z,1013.35
2018-05-07T22:49:09.973Z,1013.30
2018-05-07T22:50:11.360Z,1013.34
2018-05-07T22:51:12.750Z,1013.34
2018-05-07T22:52:14.145Z,1013.32
2018-05-07T22:53:15.533Z,1013.34
2018-05-07T22:54:16.921Z,1013.37
2018-05-07T22:55:18.318Z,1013.31
2018-05-07T22:56:19.780Z,1013.34
2018-05-07T22:57:21.164Z,1013.32
2018-05-07T22:58:22.557Z,1013.34
2018-05-07T22:59:23.962Z,1013.32
2018-05-07T23:00:25.346Z,1013.32
2018-05-07T23:01:26.753Z,1013.26
2018-05-07T23:02:28.150Z,1013.31
2018-05-07T23:03:29.524Z,1013.29
2018-05-07T23:04:30.904Z,1013.26
2018-05-07T23:05:32.284Z,1013.28
2018-05-07T23:06:33.690Z,1013.27
2018-05-07T23:07:35.669Z,1013.26
2018-05-07T23:08:37.057Z,1013.24
2018-05-07T23:09:38.458Z,1013.29
2018-05-07T23:10:39.840Z,1013.24
2018-05-07T23:11:41.240Z,1013.26
2018-05-07T23:12:42.647Z,1013.25
2018-05-07T23:13:44.036Z,1013.24
2018-05-07T23:14:45.425Z,1013.23
2018-05-07T23:15:46.815Z,1013.21
2018-05-07T23:16:48.197Z,1013.24
2018-05-07T23:17:49.579Z,1013.26
2018-05-07T23:18:50.979Z,1013.22
2018-05-07T23:19:52.361Z,1013.25
2018-05-07T23:20:53.767Z,1013.22
2018-05-07T23:21:55.193Z,1013.22
2018-05-07T23:22:56.573Z,1013.20
2018-05-07T23:23:57.981Z,1013.22
2018-05-07T23:24:59.362Z,1013.19
2018-05-07T23:26:00.761Z,1013.18
2018-05-07T23:27:02.153Z,1013.20
2018-05-07T23:28:03.525Z,1013.14
2018-05-07T23:29:04.930Z,1013.18
2018-05-07T23:30:06.311Z,1013.14
2018-05-07T23:31:07.708Z,1013.15
2018-05-07T23:32:09.088Z,1013.10
2018-05-07T23:33:10.486Z,1013.10
2018-05-07T23:34:11.873Z,1013.09
2018-05-07T23:35:13.269Z,1013.11
2018-05-07T23:36:14.658Z,1013.07
2018-05-07T23:37:16.034Z,1013.05
2018-05-07T23:38:17.428Z,1013.10
2018-05-07T23:39:18.818Z,1013.04
2018-05-07T23:40:20.207Z,1013.04
2018-05-07T23:41:21.609Z,1013.06
2018-05-07T23:42:22.978Z,1012.98
2018-05-07T23:43:24.364Z,1012.99
2018-05-07T23:44:25.751Z,1012.97
2018-05-07T23:45:27.140Z,1012.98
2018-05-07T23:46:28.536Z,1012.96
2018-05-07T23:47:29.916Z,1013.01
2018-05-07T23:48:31.300Z,1012.97
2018-05-07T23:49:32.683Z,1012.94
2018-05-07T23:50:34.080Z,1012.94
2018-05-07T23:51:35.473Z,1012.98
2018-05-07T23:52:36.859Z,1012.90
2018-05-07T23:53:38.242Z,1012.92
2018-05-07T23:54:39.627Z,1012.93
2018-05-07T23:55:41.023Z,1012.90
2018-05-07T23:56:42.404Z,1012.90
2018-05-07T23:57:43.781Z,1012.91
2018-05-07T23:58:45.174Z,1012.87
2018-05-07T23:59:46.549Z,1012.88
